sensor_id;sensor_type;location;lat;lon;timestamp;pressure;altitude;pressure_sealevel;temperature;humidity
69630;BME280;56857;52.212;5.496;2023-05-15T00:00:05;101614.41;;;12.37;100.00
69630;BME280;56857;52.212;5.496;2023-05-15T00:02:31;101610.59;;;12.40;100.00
69630;BME280;56857;52.212;5.496;2023-05-15T00:04:56;101618.56;;;12.40;100.00
69630;BME280;56857;52.212;5.496;2023-05-15T00:07:22;101628.53;;;12.29;100.00
69630;BME280;56857;52.212;5.496;2023-05-15T00:09:47;101612.53;;;12.21;100.00
69630;BME280;56857;52.212;5.496;2023-05-15T00:12:12;101610.56;;;12.23;100.00
69630;BME280;56857;52.212;5.496;2023-05-15T00:14:38;101611.66;;;12.13;100.00
69630;BME280;56857;52.212;5.496;2023-05-15T00:17:03;101605.16;;;12.07;100.00
69630;BME280;56857;52.212;5.496;2023-05-15T00:19:31;101607.81;;;12.07;100.00
69630;BME280;56857;52.212;5.496;2023-05-15T00:21:56;101610.47;;;12.07;100.00
69630;BME280;56857;52.212;5.496;2023-05-15T00:24:22;101604.19;;;12.08;100.00
69630;BME280;56857;52.212;5.496;2023-05-15T00:26:48;101591.53;;;12.10;100.00
69630;BME280;56857;52.212;5.496;2023-05-15T00:29:13;101599.19;;;12.13;100.00
69630;BME280;56857;52.212;5.496;2023-05-15T00:31:39;101592.91;;;12.14;100.00
69630;BME280;56857;52.212;5.496;2023-05-15T00:34:04;101600.06;;;12.14;100.00
69630;BME280;56857;52.212;5.496;2023-05-15T00:36:29;101602.34;;;12.09;100.00
69630;BME280;56857;52.212;5.496;2023-05-15T00:38:55;101597.69;;;12.02;100.00
69630;BME280;56857;52.212;5.496;2023-05-15T00:41:21;101593.19;;;12.03;100.00
69630;BME280;56857;52.212;5.496;2023-05-15T00:43:48;101602.31;;;12.00;100.00
69630;BME280;56857;52.212;5.496;2023-05-15T00:46:14;101599.47;;;11.94;100.00
69630;BME280;56857;52.212;5.496;2023-05-15T00:48:40;101595.16;;;11.93;100.00
69630;BME280;56857;52.212;5.496;2023-05-15T00:51:06;101594.31;;;11.92;100.00
69630;BME280;56857;52.212;5.496;2023-05-15T00:53:31;101589.97;;;11.91;100.00
69630;BME280;56857;52.212;5.496;2023-05-15T00:55:57;101584.84;;;11.90;100.00
69630;BME280;56857;52.212;5.496;2023-05-15T00:58:23;101588.19;;;11.92;100.00
69630;BME280;56857;52.212;5.496;2023-05-15T01:00:49;101580.88;;;11.94;100.00
69630;BME280;56857;52.212;5.496;2023-05-15T01:03:15;101576.56;;;12.01;100.00
69630;BME280;56857;52.212;5.496;2023-05-15T01:05:41;101575.91;;;12.07;100.00
69630;BME280;56857;52.212;5.496;2023-05-15T01:10:33;101579.94;;;12.11;100.00
69630;BME280;56857;52.212;5.496;2023-05-15T01:13:01;101581.09;;;12.09;100.00
69630;BME280;56857;52.212;5.496;2023-05-15T01:15:26;101579.25;;;12.09;100.00
69630;BME280;56857;52.212;5.496;2023-05-15T01:17:51;101578.44;;;12.09;100.00
69630;BME280;56857;52.212;5.496;2023-05-15T01:20:17;101577.75;;;12.06;100.00
69630;BME280;56857;52.212;5.496;2023-05-15T01:22:50;101565.78;;;12.02;100.00
69630;BME280;56857;52.212;5.496;2023-05-15T01:28:17;101579.91;;;11.95;100.00
69630;BME280;56857;52.212;5.496;2023-05-15T01:30:46;101577.69;;;11.90;100.00
69630;BME280;56857;52.212;5.496;2023-05-15T01:33:17;101565.41;;;11.89;100.00
69630;BME280;56857;52.212;5.496;2023-05-15T01:35:53;101565.88;;;11.85;100.00
69630;BME280;56857;52.212;5.496;2023-05-15T01:38:29;101570.50;;;11.82;100.00
69630;BME280;56857;52.212;5.496;2023-05-15T01:41:19;101561.69;;;11.82;100.00
69630;BME280;56857;52.212;5.496;2023-05-15T01:43:47;101559.34;;;11.79;100.00
69630;BME280;56857;52.212;5.496;2023-05-15T01:46:18;101550.88;;;11.75;100.00
69630;BME280;56857;52.212;5.496;2023-05-15T01:48:47;101546.03;;;11.71;100.00
69630;BME280;56857;52.212;5.496;2023-05-15T01:51:14;101549.03;;;11.68;100.00
69630;BME280;56857;52.212;5.496;2023-05-15T01:53:42;101545.03;;;11.64;100.00
69630;BME280;56857;52.212;5.496;2023-05-15T01:56:10;101545.84;;;11.64;100.00
69630;BME280;56857;52.212;5.496;2023-05-15T01:58:37;101547.50;;;11.65;100.00
69630;BME280;56857;52.212;5.496;2023-05-15T02:01:04;101556.63;;;11.63;100.00
69630;BME280;56857;52.212;5.496;2023-05-15T02:03:31;101559.59;;;11.59;100.00
69630;BME280;56857;52.212;5.496;2023-05-15T02:05:56;101564.06;;;11.59;100.00
69630;BME280;56857;52.212;5.496;2023-05-15T02:08:22;101567.72;;;11.58;100.00
69630;BME280;56857;52.212;5.496;2023-05-15T02:10:49;101559.25;;;11.54;100.00
69630;BME280;56857;52.212;5.496;2023-05-15T02:13:15;101566.53;;;11.52;100.00
69630;BME280;56857;52.212;5.496;2023-05-15T02:15:41;101572.00;;;11.51;100.00
69630;BME280;56857;52.212;5.496;2023-05-15T02:18:06;101570.31;;;11.50;100.00
69630;BME280;56857;52.212;5.496;2023-05-15T02:20:32;101570.81;;;11.45;100.00
69630;BME280;56857;52.212;5.496;2023-05-15T02:22:57;101562.78;;;11.37;100.00
69630;BME280;56857;52.212;5.496;2023-05-15T02:25:32;101565.09;;;11.32;100.00
69630;BME280;56857;52.212;5.496;2023-05-15T02:27:59;101577.69;;;11.30;100.00
69630;BME280;56857;52.212;5.496;2023-05-15T02:30:42;101573.50;;;11.27;100.00
69630;BME280;56857;52.212;5.496;2023-05-15T02:33:41;101577.94;;;11.19;100.00
69630;BME280;56857;52.212;5.496;2023-05-15T02:36:12;101576.75;;;11.13;100.00
69630;BME280;56857;52.212;5.496;2023-05-15T02:38:50;101577.88;;;11.10;100.00
69630;BME280;56857;52.212;5.496;2023-05-15T02:41:17;101580.38;;;11.12;100.00
69630;BME280;56857;52.212;5.496;2023-05-15T02:43:44;101578.09;;;11.17;100.00
69630;BME280;56857;52.212;5.496;2023-05-15T02:46:12;101567.47;;;11.17;100.00
69630;BME280;56857;52.212;5.496;2023-05-15T02:48:39;101573.09;;;11.14;100.00
69630;BME280;56857;52.212;5.496;2023-05-15T02:51:05;101565.44;;;11.11;100.00
69630;BME280;56857;52.212;5.496;2023-05-15T02:53:32;101573.03;;;11.06;100.00
69630;BME280;56857;52.212;5.496;2023-05-15T02:55:57;101574.84;;;11.05;100.00
69630;BME280;56857;52.212;5.496;2023-05-15T02:58:23;101578.34;;;11.06;100.00
69630;BME280;56857;52.212;5.496;2023-05-15T03:00:49;101567.72;;;11.06;100.00
69630;BME280;56857;52.212;5.496;2023-05-15T03:03:14;101567.19;;;11.02;100.00
69630;BME280;56857;52.212;5.496;2023-05-15T03:05:40;101561.53;;;10.97;100.00
69630;BME280;56857;52.212;5.496;2023-05-15T03:08:05;101563.50;;;10.95;100.00
69630;BME280;56857;52.212;5.496;2023-05-15T03:10:30;101564.34;;;10.96;100.00
69630;BME280;56857;52.212;5.496;2023-05-15T03:12:55;101562.50;;;10.96;100.00
69630;BME280;56857;52.212;5.496;2023-05-15T03:15:21;101566.00;;;10.97;100.00
69630;BME280;56857;52.212;5.496;2023-05-15T03:17:46;101561.16;;;10.92;100.00
69630;BME280;56857;52.212;5.496;2023-05-15T03:20:11;101565.13;;;10.88;100.00
69630;BME280;56857;52.212;5.496;2023-05-15T03:22:37;101567.78;;;10.88;100.00
69630;BME280;56857;52.212;5.496;2023-05-15T03:25:02;101566.91;;;10.87;100.00
69630;BME280;56857;52.212;5.496;2023-05-15T03:27:28;101565.78;;;10.90;100.00
69630;BME280;56857;52.212;5.496;2023-05-15T03:29:53;101564.66;;;10.93;100.00
69630;BME280;56857;52.212;5.496;2023-05-15T03:32:18;101564.66;;;10.93;100.00
69630;BME280;56857;52.212;5.496;2023-05-15T03:34:43;101559.66;;;10.89;100.00
69630;BME280;56857;52.212;5.496;2023-05-15T03:37:09;101557.28;;;10.86;100.00
69630;BME280;56857;52.212;5.496;2023-05-15T03:39:34;101563.06;;;10.82;100.00
69630;BME280;56857;52.212;5.496;2023-05-15T03:41:59;101560.25;;;10.83;100.00
69630;BME280;56857;52.212;5.496;2023-05-15T03:44:25;101562.06;;;10.83;100.00
69630;BME280;56857;52.212;5.496;2023-05-15T03:46:50;101556.78;;;10.83;100.00
69630;BME280;56857;52.212;5.496;2023-05-15T03:49:15;101545.66;;;10.79;100.00
69630;BME280;56857;52.212;5.496;2023-05-15T03:51:41;101547.31;;;10.80;100.00
69630;BME280;56857;52.212;5.496;2023-05-15T03:54:06;101547.59;;;10.77;100.00
69630;BME280;56857;52.212;5.496;2023-05-15T03:56:32;101545.56;;;10.71;100.00
69630;BME280;56857;52.212;5.496;2023-05-15T03:58:57;101547.38;;;10.71;100.00
69630;BME280;56857;52.212;5.496;2023-05-15T04:01:23;101552.69;;;10.71;100.00
69630;BME280;56857;52.212;5.496;2023-05-15T04:03:48;101563.47;;;10.69;100.00
69630;BME280;56857;52.212;5.496;2023-05-15T04:06:14;101571.41;;;10.69;100.00
69630;BME280;56857;52.212;5.496;2023-05-15T04:08:39;101573.22;;;10.68;100.00
69630;BME280;56857;52.212;5.496;2023-05-15T04:11:04;101564.91;;;10.63;100.00
69630;BME280;56857;52.212;5.496;2023-05-15T04:13:30;101571.63;;;10.58;100.00
69630;BME280;56857;52.212;5.496;2023-05-15T04:15:55;101570.81;;;10.57;100.00
69630;BME280;56857;52.212;5.496;2023-05-15T04:18:20;101565.63;;;10.56;100.00
69630;BME280;56857;52.212;5.496;2023-05-15T04:20:46;101568.00;;;10.59;100.00
69630;BME280;56857;52.212;5.496;2023-05-15T04:23:11;101565.34;;;10.59;100.00
69630;BME280;56857;52.212;5.496;2023-05-15T04:25:36;101567.47;;;10.55;100.00
69630;BME280;56857;52.212;5.496;2023-05-15T04:28:01;101565.94;;;10.53;100.00
69630;BME280;56857;52.212;5.496;2023-05-15T04:30:29;101560.34;;;10.56;100.00
69630;BME280;56857;52.212;5.496;2023-05-15T04:32:54;101565.50;;;10.57;100.00
69630;BME280;56857;52.212;5.496;2023-05-15T04:35:20;101569.38;;;10.63;100.00
69630;BME280;56857;52.212;5.496;2023-05-15T04:37:45;101566.84;;;10.61;100.00
69630;BME280;56857;52.212;5.496;2023-05-15T04:40:10;101563.38;;;10.61;100.00
69630;BME280;56857;52.212;5.496;2023-05-15T04:42:36;101562.91;;;10.65;100.00
69630;BME280;56857;52.212;5.496;2023-05-15T04:45:02;101572.69;;;10.65;100.00
69630;BME280;56857;52.212;5.496;2023-05-15T04:47:27;101578.00;;;10.65;100.00
69630;BME280;56857;52.212;5.496;2023-05-15T04:49:54;101583.16;;;10.66;100.00
69630;BME280;56857;52.212;5.496;2023-05-15T04:52:19;101578.50;;;10.68;100.00
69630;BME280;56857;52.212;5.496;2023-05-15T04:54:44;101581.72;;;10.72;100.00
69630;BME280;56857;52.212;5.496;2023-05-15T04:57:09;101579.91;;;10.73;100.00
69630;BME280;56857;52.212;5.496;2023-05-15T04:59:35;101580.13;;;10.61;100.00
69630;BME280;56857;52.212;5.496;2023-05-15T05:02:01;101581.13;;;10.60;100.00
69630;BME280;56857;52.212;5.496;2023-05-15T05:04:27;101580.94;;;10.62;100.00
69630;BME280;56857;52.212;5.496;2023-05-15T05:06:52;101581.88;;;10.71;100.00
69630;BME280;56857;52.212;5.496;2023-05-15T05:09:18;101586.41;;;10.78;100.00
69630;BME280;56857;52.212;5.496;2023-05-15T05:11:45;101581.13;;;10.78;100.00
69630;BME280;56857;52.212;5.496;2023-05-15T05:14:11;101587.69;;;10.74;100.00
69630;BME280;56857;52.212;5.496;2023-05-15T05:16:37;101585.72;;;10.76;100.00
69630;BME280;56857;52.212;5.496;2023-05-15T05:19:03;101589.38;;;10.75;100.00
69630;BME280;56857;52.212;5.496;2023-05-15T05:21:29;101584.38;;;10.72;100.00
69630;BME280;56857;52.212;5.496;2023-05-15T05:23:55;101590.66;;;10.71;100.00
69630;BME280;56857;52.212;5.496;2023-05-15T05:26:20;101587.47;;;10.67;100.00
69630;BME280;56857;52.212;5.496;2023-05-15T05:28:45;101588.47;;;10.66;100.00
69630;BME280;56857;52.212;5.496;2023-05-15T05:31:11;101583.69;;;10.70;100.00
69630;BME280;56857;52.212;5.496;2023-05-15T05:33:36;101577.09;;;10.74;100.00
69630;BME280;56857;52.212;5.496;2023-05-15T05:36:01;101590.13;;;10.85;100.00
69630;BME280;56857;52.212;5.496;2023-05-15T05:38:27;101573.59;;;10.92;100.00
69630;BME280;56857;52.212;5.496;2023-05-15T05:40:52;101574.81;;;10.97;100.00
69630;BME280;56857;52.212;5.496;2023-05-15T05:43:18;101577.28;;;10.99;100.00
69630;BME280;56857;52.212;5.496;2023-05-15T05:45:43;101567.00;;;10.96;100.00
69630;BME280;56857;52.212;5.496;2023-05-15T05:48:09;101572.47;;;10.94;100.00
69630;BME280;56857;52.212;5.496;2023-05-15T05:50:34;101566.84;;;10.97;100.00
69630;BME280;56857;52.212;5.496;2023-05-15T05:52:59;101571.16;;;10.98;100.00
69630;BME280;56857;52.212;5.496;2023-05-15T05:55:24;101578.28;;;10.98;100.00
69630;BME280;56857;52.212;5.496;2023-05-15T05:57:50;101565.84;;;10.98;100.00
69630;BME280;56857;52.212;5.496;2023-05-15T06:00:16;101574.63;;;10.99;100.00
69630;BME280;56857;52.212;5.496;2023-05-15T06:02:41;101581.50;;;11.09;100.00
69630;BME280;56857;52.212;5.496;2023-05-15T06:05:07;101577.16;;;11.26;100.00
69630;BME280;56857;52.212;5.496;2023-05-15T06:07:33;101585.13;;;11.52;100.00
69630;BME280;56857;52.212;5.496;2023-05-15T06:09:58;101575.22;;;11.63;100.00
69630;BME280;56857;52.212;5.496;2023-05-15T06:12:23;101568.13;;;11.71;100.00
69630;BME280;56857;52.212;5.496;2023-05-15T06:14:49;101572.63;;;11.79;100.00
69630;BME280;56857;52.212;5.496;2023-05-15T06:17:14;101569.63;;;11.74;100.00
69630;BME280;56857;52.212;5.496;2023-05-15T06:19:39;101564.13;;;11.67;100.00
69630;BME280;56857;52.212;5.496;2023-05-15T06:22:05;101559.97;;;11.65;100.00
69630;BME280;56857;52.212;5.496;2023-05-15T06:24:30;101566.59;;;11.69;100.00
69630;BME280;56857;52.212;5.496;2023-05-15T06:26:55;101566.47;;;11.70;100.00
69630;BME280;56857;52.212;5.496;2023-05-15T06:29:21;101565.97;;;11.67;100.00
69630;BME280;56857;52.212;5.496;2023-05-15T06:31:46;101562.09;;;11.61;100.00
69630;BME280;56857;52.212;5.496;2023-05-15T06:34:11;101571.41;;;11.65;100.00
69630;BME280;56857;52.212;5.496;2023-05-15T06:36:37;101568.28;;;11.70;100.00
69630;BME280;56857;52.212;5.496;2023-05-15T06:39:02;101572.44;;;11.72;100.00
69630;BME280;56857;52.212;5.496;2023-05-15T06:41:27;101565.16;;;11.74;100.00
69630;BME280;56857;52.212;5.496;2023-05-15T06:43:53;101571.19;;;11.85;100.00
69630;BME280;56857;52.212;5.496;2023-05-15T06:46:18;101571.47;;;12.08;100.00
69630;BME280;56857;52.212;5.496;2023-05-15T06:48:44;101571.69;;;12.31;100.00
69630;BME280;56857;52.212;5.496;2023-05-15T06:51:09;101570.22;;;12.44;100.00
69630;BME280;56857;52.212;5.496;2023-05-15T06:53:34;101572.41;;;12.65;100.00
69630;BME280;56857;52.212;5.496;2023-05-15T06:56:00;101569.25;;;12.78;100.00
69630;BME280;56857;52.212;5.496;2023-05-15T06:58:25;101575.56;;;12.85;100.00
69630;BME280;56857;52.212;5.496;2023-05-15T07:00:50;101573.25;;;12.90;100.00
69630;BME280;56857;52.212;5.496;2023-05-15T07:03:16;101575.06;;;13.06;100.00
69630;BME280;56857;52.212;5.496;2023-05-15T07:05:41;101568.09;;;13.05;100.00
69630;BME280;56857;52.212;5.496;2023-05-15T07:08:07;101574.06;;;13.15;100.00
69630;BME280;56857;52.212;5.496;2023-05-15T07:10:33;101565.72;;;13.43;100.00
69630;BME280;56857;52.212;5.496;2023-05-15T07:12:58;101569.44;;;13.81;100.00
69630;BME280;56857;52.212;5.496;2023-05-15T07:15:23;101565.16;;;14.03;100.00
69630;BME280;56857;52.212;5.496;2023-05-15T07:17:49;101569.66;;;14.03;100.00
69630;BME280;56857;52.212;5.496;2023-05-15T07:20:14;101565.94;;;13.81;100.00
69630;BME280;56857;52.212;5.496;2023-05-15T07:22:39;101554.91;;;13.84;100.00
69630;BME280;56857;52.212;5.496;2023-05-15T07:25:05;101563.06;;;13.90;100.00
69630;BME280;56857;52.212;5.496;2023-05-15T07:27:31;101559.41;;;13.83;100.00
69630;BME280;56857;52.212;5.496;2023-05-15T07:29:56;101562.13;;;13.75;100.00
69630;BME280;56857;52.212;5.496;2023-05-15T07:32:21;101571.44;;;13.79;100.00
69630;BME280;56857;52.212;5.496;2023-05-15T07:34:47;101567.94;;;13.79;100.00
69630;BME280;56857;52.212;5.496;2023-05-15T07:37:12;101564.78;;;13.75;100.00
69630;BME280;56857;52.212;5.496;2023-05-15T07:39:39;101570.38;;;13.97;100.00
69630;BME280;56857;52.212;5.496;2023-05-15T07:42:04;101561.59;;;14.19;100.00
69630;BME280;56857;52.212;5.496;2023-05-15T07:44:30;101564.47;;;14.09;100.00
69630;BME280;56857;52.212;5.496;2023-05-15T07:46:55;101562.09;;;14.14;100.00
69630;BME280;56857;52.212;5.496;2023-05-15T07:49:20;101565.91;;;14.20;100.00
69630;BME280;56857;52.212;5.496;2023-05-15T07:51:46;101564.19;;;14.27;100.00
69630;BME280;56857;52.212;5.496;2023-05-15T07:54:11;101568.06;;;14.48;100.00
69630;BME280;56857;52.212;5.496;2023-05-15T07:56:38;101567.19;;;14.78;100.00
69630;BME280;56857;52.212;5.496;2023-05-15T07:59:03;101559.28;;;15.08;100.00
69630;BME280;56857;52.212;5.496;2023-05-15T08:01:28;101559.59;;;15.43;100.00
69630;BME280;56857;52.212;5.496;2023-05-15T08:03:53;101563.25;;;15.57;100.00
69630;BME280;56857;52.212;5.496;2023-05-15T08:06:19;101555.25;;;15.57;100.00
69630;BME280;56857;52.212;5.496;2023-05-15T08:08:44;101562.25;;;15.28;100.00
69630;BME280;56857;52.212;5.496;2023-05-15T08:11:09;101554.09;;;14.92;100.00
69630;BME280;56857;52.212;5.496;2023-05-15T08:13:35;101555.88;;;14.76;100.00
69630;BME280;56857;52.212;5.496;2023-05-15T08:16:00;101559.03;;;14.57;100.00
69630;BME280;56857;52.212;5.496;2023-05-15T08:18:25;101562.16;;;14.37;100.00
69630;BME280;56857;52.212;5.496;2023-05-15T08:20:51;101558.00;;;14.35;100.00
69630;BME280;56857;52.212;5.496;2023-05-15T08:23:16;101561.75;;;14.41;100.00
69630;BME280;56857;52.212;5.496;2023-05-15T08:25:42;101563.72;;;14.55;100.00
69630;BME280;56857;52.212;5.496;2023-05-15T08:28:07;101566.09;;;14.73;100.00
69630;BME280;56857;52.212;5.496;2023-05-15T08:30:32;101563.44;;;14.88;100.00
69630;BME280;56857;52.212;5.496;2023-05-15T08:32:58;101569.28;;;15.06;100.00
69630;BME280;56857;52.212;5.496;2023-05-15T08:35:23;101565.00;;;15.35;100.00
69630;BME280;56857;52.212;5.496;2023-05-15T08:37:48;101560.34;;;15.81;100.00
69630;BME280;56857;52.212;5.496;2023-05-15T08:40:14;101560.31;;;15.96;100.00
69630;BME280;56857;52.212;5.496;2023-05-15T08:42:44;101560.56;;;16.01;100.00
69630;BME280;56857;52.212;5.496;2023-05-15T08:45:12;101562.75;;;16.27;100.00
69630;BME280;56857;52.212;5.496;2023-05-15T08:47:39;101549.16;;;16.29;100.00
69630;BME280;56857;52.212;5.496;2023-05-15T08:50:08;101541.72;;;16.45;100.00
69630;BME280;56857;52.212;5.496;2023-05-15T08:52:34;101551.34;;;16.61;100.00
69630;BME280;56857;52.212;5.496;2023-05-15T08:55:01;101553.38;;;16.59;100.00
69630;BME280;56857;52.212;5.496;2023-05-15T08:57:27;101544.22;;;16.47;100.00
69630;BME280;56857;52.212;5.496;2023-05-15T08:59:54;101549.22;;;16.35;100.00
69630;BME280;56857;52.212;5.496;2023-05-15T09:02:21;101552.09;;;16.34;100.00
69630;BME280;56857;52.212;5.496;2023-05-15T09:04:46;101552.94;;;16.34;100.00
69630;BME280;56857;52.212;5.496;2023-05-15T09:07:14;101545.03;;;16.69;100.00
69630;BME280;56857;52.212;5.496;2023-05-15T09:09:41;101553.50;;;16.94;100.00
69630;BME280;56857;52.212;5.496;2023-05-15T09:12:09;101554.91;;;16.68;100.00
69630;BME280;56857;52.212;5.496;2023-05-15T09:14:35;101563.38;;;16.51;100.00
69630;BME280;56857;52.212;5.496;2023-05-15T09:17:00;101559.31;;;16.55;100.00
69630;BME280;56857;52.212;5.496;2023-05-15T09:19:26;101567.47;;;16.47;100.00
69630;BME280;56857;52.212;5.496;2023-05-15T09:21:52;101571.28;;;16.37;100.00
69630;BME280;56857;52.212;5.496;2023-05-15T09:24:22;101569.09;;;16.26;100.00
69630;BME280;56857;52.212;5.496;2023-05-15T09:27:01;101572.38;;;16.64;100.00
69630;BME280;56857;52.212;5.496;2023-05-15T09:29:29;101575.22;;;16.78;100.00
69630;BME280;56857;52.212;5.496;2023-05-15T09:31:54;101568.09;;;16.70;100.00
69630;BME280;56857;52.212;5.496;2023-05-15T09:34:30;101566.94;;;16.58;100.00
69630;BME280;56857;52.212;5.496;2023-05-15T09:36:56;101564.75;;;16.61;100.00
69630;BME280;56857;52.212;5.496;2023-05-15T09:39:22;101570.53;;;16.65;100.00
69630;BME280;56857;52.212;5.496;2023-05-15T09:41:50;101564.09;;;16.59;100.00
69630;BME280;56857;52.212;5.496;2023-05-15T09:44:24;101564.91;;;16.38;100.00
69630;BME280;56857;52.212;5.496;2023-05-15T09:46:50;101556.84;;;16.53;100.00
69630;BME280;56857;52.212;5.496;2023-05-15T09:49:19;101562.88;;;16.83;100.00
69630;BME280;56857;52.212;5.496;2023-05-15T09:51:46;101567.56;;;16.96;100.00
69630;BME280;56857;52.212;5.496;2023-05-15T09:54:16;101567.09;;;16.92;100.00
69630;BME280;56857;52.212;5.496;2023-05-15T09:56:46;101566.91;;;16.94;100.00
69630;BME280;56857;52.212;5.496;2023-05-15T09:59:17;101566.53;;;16.97;100.00
69630;BME280;56857;52.212;5.496;2023-05-15T10:01:45;101563.91;;;16.82;100.00
69630;BME280;56857;52.212;5.496;2023-05-15T10:04:18;101558.75;;;16.59;100.00
69630;BME280;56857;52.212;5.496;2023-05-15T10:06:47;101565.72;;;16.39;100.00
69630;BME280;56857;52.212;5.496;2023-05-15T10:09:18;101561.28;;;16.25;100.00
69630;BME280;56857;52.212;5.496;2023-05-15T10:11:48;101563.53;;;16.06;100.00
69630;BME280;56857;52.212;5.496;2023-05-15T10:14:16;101563.66;;;15.83;100.00
69630;BME280;56857;52.212;5.496;2023-05-15T10:16:43;101571.88;;;15.67;100.00
69630;BME280;56857;52.212;5.496;2023-05-15T10:19:11;101575.97;;;15.40;100.00
69630;BME280;56857;52.212;5.496;2023-05-15T10:21:39;101580.66;;;15.23;100.00
69630;BME280;56857;52.212;5.496;2023-05-15T10:24:05;101575.19;;;15.16;100.00
69630;BME280;56857;52.212;5.496;2023-05-15T10:26:36;101583.97;;;15.10;100.00
69630;BME280;56857;52.212;5.496;2023-05-15T10:29:04;101575.97;;;15.10;100.00
69630;BME280;56857;52.212;5.496;2023-05-15T10:31:30;101587.06;;;14.99;100.00
69630;BME280;56857;52.212;5.496;2023-05-15T10:33:59;101581.59;;;14.92;100.00
69630;BME280;56857;52.212;5.496;2023-05-15T10:36:31;101581.03;;;14.82;100.00
69630;BME280;56857;52.212;5.496;2023-05-15T10:39:03;101576.81;;;14.65;100.00
69630;BME280;56857;52.212;5.496;2023-05-15T10:41:29;101584.16;;;14.63;100.00
69630;BME280;56857;52.212;5.496;2023-05-15T10:43:57;101584.34;;;14.61;100.00
69630;BME280;56857;52.212;5.496;2023-05-15T10:46:23;101586.44;;;14.51;100.00
69630;BME280;56857;52.212;5.496;2023-05-15T10:48:49;101585.25;;;14.45;100.00
69630;BME280;56857;52.212;5.496;2023-05-15T10:51:16;101583.28;;;14.39;100.00
69630;BME280;56857;52.212;5.496;2023-05-15T10:53:45;101578.84;;;14.31;100.00
69630;BME280;56857;52.212;5.496;2023-05-15T10:56:14;101578.22;;;14.21;100.00
69630;BME280;56857;52.212;5.496;2023-05-15T10:58:44;101579.44;;;14.19;100.00
69630;BME280;56857;52.212;5.496;2023-05-15T11:01:26;101575.06;;;14.18;100.00
69630;BME280;56857;52.212;5.496;2023-05-15T11:04:14;101569.00;;;14.32;100.00
69630;BME280;56857;52.212;5.496;2023-05-15T11:06:41;101571.09;;;14.45;100.00
69630;BME280;56857;52.212;5.496;2023-05-15T11:14:19;101569.13;;;14.38;100.00
69630;BME280;56857;52.212;5.496;2023-05-15T11:21:55;101575.88;;;14.49;100.00
69630;BME280;56857;52.212;5.496;2023-05-15T11:24:47;101571.72;;;14.47;100.00
69630;BME280;56857;52.212;5.496;2023-05-15T11:27:11;101572.66;;;14.62;100.00
69630;BME280;56857;52.212;5.496;2023-05-15T11:37:43;101583.50;;;14.83;100.00
69630;BME280;56857;52.212;5.496;2023-05-15T11:40:14;101578.88;;;14.77;100.00
69630;BME280;56857;52.212;5.496;2023-05-15T11:42:57;101572.78;;;14.69;100.00
69630;BME280;56857;52.212;5.496;2023-05-15T11:45:23;101572.13;;;14.67;100.00
69630;BME280;56857;52.212;5.496;2023-05-15T11:47:48;101575.59;;;14.75;100.00
69630;BME280;56857;52.212;5.496;2023-05-15T11:50:15;101573.75;;;14.76;100.00
69630;BME280;56857;52.212;5.496;2023-05-15T11:52:41;101567.75;;;14.74;100.00
69630;BME280;56857;52.212;5.496;2023-05-15T11:55:07;101565.84;;;14.82;100.00
69630;BME280;56857;52.212;5.496;2023-05-15T11:57:32;101568.31;;;14.84;100.00
69630;BME280;56857;52.212;5.496;2023-05-15T11:59:58;101567.78;;;14.89;100.00
69630;BME280;56857;52.212;5.496;2023-05-15T12:02:23;101561.91;;;14.93;100.00
69630;BME280;56857;52.212;5.496;2023-05-15T12:04:48;101562.19;;;14.98;100.00
69630;BME280;56857;52.212;5.496;2023-05-15T12:07:14;101561.47;;;15.04;100.00
69630;BME280;56857;52.212;5.496;2023-05-15T12:09:40;101561.47;;;15.04;100.00
69630;BME280;56857;52.212;5.496;2023-05-15T12:12:11;101554.69;;;15.17;100.00
69630;BME280;56857;52.212;5.496;2023-05-15T12:14:38;101568.13;;;15.38;100.00
69630;BME280;56857;52.212;5.496;2023-05-15T12:17:05;101558.84;;;15.49;100.00
69630;BME280;56857;52.212;5.496;2023-05-15T12:19:33;101561.31;;;15.50;100.00
69630;BME280;56857;52.212;5.496;2023-05-15T12:22:01;101562.25;;;15.43;100.00
69630;BME280;56857;52.212;5.496;2023-05-15T12:24:28;101557.94;;;15.42;100.00
69630;BME280;56857;52.212;5.496;2023-05-15T12:26:54;101555.25;;;15.57;100.00
69630;BME280;56857;52.212;5.496;2023-05-15T12:29:19;101556.56;;;15.61;100.00
69630;BME280;56857;52.212;5.496;2023-05-15T12:31:44;101559.81;;;15.71;100.00
69630;BME280;56857;52.212;5.496;2023-05-15T12:34:10;101556.47;;;15.69;100.00
69630;BME280;56857;52.212;5.496;2023-05-15T12:36:36;101561.53;;;15.64;100.00
69630;BME280;56857;52.212;5.496;2023-05-15T12:39:05;101558.88;;;15.79;100.00
69630;BME280;56857;52.212;5.496;2023-05-15T12:41:30;101559.66;;;15.94;100.00
69630;BME280;56857;52.212;5.496;2023-05-15T12:43:56;101551.31;;;16.18;100.00
69630;BME280;56857;52.212;5.496;2023-05-15T12:46:22;101549.94;;;16.44;100.00
69630;BME280;56857;52.212;5.496;2023-05-15T12:48:49;101543.31;;;16.40;100.00
69630;BME280;56857;52.212;5.496;2023-05-15T12:51:16;101541.16;;;16.50;100.00
69630;BME280;56857;52.212;5.496;2023-05-15T12:53:41;101552.41;;;16.67;100.00
69630;BME280;56857;52.212;5.496;2023-05-15T12:56:08;101549.25;;;16.57;100.00
69630;BME280;56857;52.212;5.496;2023-05-15T12:58:34;101541.41;;;16.34;100.00
69630;BME280;56857;52.212;5.496;2023-05-15T13:00:59;101540.97;;;16.30;100.00